Time,TemperatureF,DewpointF,PressureIn,WindDirection,WindDirectionDegrees,WindSpeedMPH,WindSpeedGustMPH,Humidity,HourlyPrecipIn,Conditions,Clouds,dailyrainin,SolarRadiationWatts/m^2,SoftwareType,DateUTC
2013-01-19 00:02:00,21.5,18.2,29.74,NNW,329,0.0,0.0,87,0.00,RA,SCT,0.00,0.0,WeatherDisplay:10.37,2013-01-18 23:02:00,
2013-01-19 00:07:00,21.5,18.2,29.74,NNW,329,0.0,0.0,87,0.00,RA,SCT,0.00,0.0,WeatherDisplay:10.37,2013-01-18 23:07:00,
2013-01-19 00:12:00,21.4,18.1,29.74,NNW,329,0.0,0.0,87,0.00,CLR,SCT,0.00,0.0,WeatherDisplay:10.37,2013-01-18 23:12:00,
2013-01-19 00:17:00,21.4,18.1,29.73,NNW,329,0.0,0.0,87,0.00,CLR,SCT,0.00,0.0,WeatherDisplay:10.37,2013-01-18 23:17:00,
2013-01-19 00:22:00,21.4,18.1,29.73,NNW,329,0.0,0.0,87,0.00,CLR,SCT,0.00,0.0,WeatherDisplay:10.37,2013-01-18 23:22:00,
2013-01-19 00:27:00,21.4,18.1,29.73,NNW,329,0.0,0.0,87,0.00,CLR,SCT,0.00,0.0,WeatherDisplay:10.37,2013-01-18 23:27:00,
2013-01-19 00:32:00,21.4,18.1,29.73,NNW,329,0.0,0.0,87,0.00,CLR,SCT,0.00,0.0,WeatherDisplay:10.37,2013-01-18 23:32:00,
2013-01-19 00:37:00,21.3,18.0,29.73,NNW,329,0.0,0.0,87,0.00,CLR,SCT,0.00,0.0,WeatherDisplay:10.37,2013-01-18 23:37:00,
2013-01-19 00:42:00,21.4,18.1,29.73,NNW,329,0.0,0.0,87,0.00,CLR,SCT,0.00,0.0,WeatherDisplay:10.37,2013-01-18 23:42:00,
2013-01-19 00:47:00,21.3,18.0,29.72,NNW,329,0.0,0.0,87,0.00,CLR,SCT,0.00,0.0,WeatherDisplay:10.37,2013-01-18 23:47:00,
2013-01-19 00:53:00,21.3,18.0,29.72,NNW,329,0.0,0.0,87,0.00,CLR,SCT,0.00,0.0,WeatherDisplay:10.37,2013-01-18 23:53:00,
2013-01-19 00:58:00,21.3,18.0,29.72,NNW,329,0.0,0.0,87,0.00,CLR,SCT,0.00,0.0,WeatherDisplay:10.37,2013-01-18 23:58:00,
2013-01-19 01:03:00,21.3,18.0,29.72,NNW,329,0.0,0.0,87,0.00,CLR,SCT,0.00,0.0,WeatherDisplay:10.37,2013-01-19 00:03:00,
2013-01-19 01:08:00,21.3,18.0,29.72,NNW,329,0.0,0.0,87,0.00,CLR,SCT,0.00,0.0,WeatherDisplay:10.37,2013-01-19 00:08:00,
2013-01-19 01:13:00,21.3,18.0,29.72,NNW,329,0.0,0.0,87,0.00,CLR,SCT,0.00,0.0,WeatherDisplay:10.37,2013-01-19 00:13:00,
2013-01-19 01:18:00,21.3,18.0,29.71,NNW,329,0.0,0.0,87,0.00,CLR,SCT,0.00,0.0,WeatherDisplay:10.37,2013-01-19 00:18:00,
2013-01-19 01:23:00,21.4,18.1,29.71,NNW,329,0.0,0.0,87,0.00,CLR,SCT,0.00,0.0,WeatherDisplay:10.37,2013-01-19 00:23:00,
2013-01-19 01:28:00,21.4,18.1,29.71,NNW,329,0.0,0.0,87,0.00,CLR,SCT,0.00,0.0,WeatherDisplay:10.37,2013-01-19 00:28:00,
2013-01-19 01:33:00,21.4,18.1,29.71,NNW,329,0.0,0.0,87,0.00,CLR,SCT,0.00,0.0,WeatherDisplay:10.37,2013-01-19 00:33:00,
2013-01-19 01:38:00,21.4,18.1,29.71,NNW,329,0.0,0.0,87,0.00,CLR,SCT,0.00,0.0,WeatherDisplay:10.37,2013-01-19 00:38:00,
2013-01-19 01:43:00,21.4,18.1,29.71,NNW,329,0.0,0.0,87,0.00,CLR,SCT,0.00,0.0,WeatherDisplay:10.37,2013-01-19 00:43:00,
2013-01-19 01:48:00,21.4,18.1,29.71,NNW,329,0.0,0.0,87,0.00,CLR,SCT,0.00,0.0,WeatherDisplay:10.37,2013-01-19 00:48:00,
2013-01-19 01:53:00,21.4,18.1,29.71,NNW,329,0.0,0.0,87,0.00,CLR,SCT,0.00,0.0,WeatherDisplay:10.37,2013-01-19 00:53:00,
2013-01-19 01:58:00,21.4,18.1,29.71,NNW,329,0.0,0.0,87,0.00,CLR,SCT,0.00,0.0,WeatherDisplay:10.37,2013-01-19 00:58:00,
2013-01-19 02:03:00,21.3,18.0,29.72,NNW,329,0.0,0.0,87,0.00,CLR,SCT,0.00,0.0,WeatherDisplay:10.37,2013-01-19 01:03:00,
2013-01-19 02:08:00,21.4,18.1,29.72,NNW,329,0.0,0.0,87,0.00,CLR,SCT,0.00,0.0,WeatherDisplay:10.37,2013-01-19 01:08:00,
2013-01-19 02:13:00,21.5,18.2,29.72,NNW,329,0.0,0.0,87,0.00,CLR,SCT,0.00,0.0,WeatherDisplay:10.37,2013-01-19 01:13:00,
2013-01-19 02:18:00,21.4,18.1,29.72,NNW,329,0.0,0.0,87,0.00,CLR,SCT,0.00,0.0,WeatherDisplay:10.37,2013-01-19 01:18:00,
2013-01-19 02:23:00,21.3,18.0,29.72,NNW,329,0.0,0.0,87,0.00,CLR,SCT,0.00,0.0,WeatherDisplay:10.37,2013-01-19 01:23:00,
2013-01-19 02:28:00,21.3,18.0,29.72,NNW,329,0.0,0.0,87,0.00,CLR,SCT,0.00,0.0,WeatherDisplay:10.37,2013-01-19 01:28:00,
2013-01-19 02:33:00,21.4,18.1,29.71,NNW,329,0.0,0.0,87,0.00,CLR,SCT,0.00,0.0,WeatherDisplay:10.37,2013-01-19 01:33:00,
2013-01-19 02:38:00,21.3,18.0,29.71,NNW,329,0.0,0.0,87,0.00,CLR,SCT,0.00,0.0,WeatherDisplay:10.37,2013-01-19 01:38:00,
2013-01-19 02:43:00,21.4,18.1,29.71,NNW,329,0.0,0.0,87,0.00,CLR,SCT,0.00,0.0,WeatherDisplay:10.37,2013-01-19 01:43:00,
2013-01-19 02:48:00,21.3,18.0,29.71,NNW,329,0.0,0.0,87,0.00,CLR,SCT,0.00,0.0,WeatherDisplay:10.37,2013-01-19 01:48:00,
2013-01-19 02:53:00,21.3,18.0,29.71,NNW,329,0.0,0.0,87,0.00,CLR,SCT,0.00,0.0,WeatherDisplay:10.37,2013-01-19 01:53:00,
2013-01-19 02:58:00,21.3,18.0,29.71,NNW,329,0.0,0.0,87,0.00,CLR,SCT,0.00,0.0,WeatherDisplay:10.37,2013-01-19 01:58:00,
2013-01-19 03:03:00,21.2,17.9,29.70,NNW,329,0.0,0.0,87,0.00,CLR,SCT,0.00,0.0,WeatherDisplay:10.37,2013-01-19 02:03:00,
2013-01-19 03:08:00,21.2,17.9,29.70,NNW,329,0.0,0.0,87,0.00,CLR,SCT,0.00,0.0,WeatherDisplay:10.37,2013-01-19 02:08:00,
2013-01-19 03:13:00,21.3,18.0,29.70,NNW,329,1.2,1.2,87,0.00,CLR,SCT,0.00,0.0,WeatherDisplay:10.37,2013-01-19 02:13:00,
2013-01-19 03:18:00,21.3,18.0,29.70,NNW,329,2.3,2.3,87,0.00,CLR,SCT,0.00,0.0,WeatherDisplay:10.37,2013-01-19 02:18:00,
2013-01-19 03:23:00,21.3,18.0,29.70,NNW,329,2.3,2.3,87,0.00,CLR,SCT,0.00,0.0,WeatherDisplay:10.37,2013-01-19 02:23:00,
2013-01-19 03:28:00,21.2,17.9,29.70,NNW,329,1.2,1.2,87,0.00,CLR,SCT,0.00,0.0,WeatherDisplay:10.37,2013-01-19 02:28:00,
2013-01-19 03:33:00,21.2,17.9,29.70,NNW,329,1.2,0.0,87,0.00,CLR,SCT,0.00,0.0,WeatherDisplay:10.37,2013-01-19 02:33:00,
2013-01-19 03:38:00,21.2,17.9,29.70,NNW,329,2.3,2.3,87,0.00,CLR,SCT,0.00,0.0,WeatherDisplay:10.37,2013-01-19 02:38:00,
2013-01-19 03:43:00,21.2,17.9,29.69,NNW,329,1.2,1.2,87,0.00,CLR,SCT,0.00,0.0,WeatherDisplay:10.37,2013-01-19 02:43:00,
2013-01-19 03:48:00,21.2,17.9,29.69,NNW,329,0.0,0.0,87,0.00,CLR,SCT,0.00,0.0,WeatherDisplay:10.37,2013-01-19 02:48:00,
2013-01-19 03:53:00,21.1,17.8,29.69,NNW,329,2.3,2.3,87,0.00,CLR,SCT,0.00,0.0,WeatherDisplay:10.37,2013-01-19 02:53:00,
2013-01-19 03:58:00,21.1,17.8,29.69,NNW,329,1.2,0.0,87,0.00,CLR,SCT,0.00,0.0,WeatherDisplay:10.37,2013-01-19 02:58:00,
2013-01-19 04:03:00,21.0,17.7,29.68,NNW,329,0.0,0.0,87,0.00,CLR,SCT,0.00,0.0,WeatherDisplay:10.37,2013-01-19 03:03:00,
2013-01-19 04:08:00,21.0,17.7,29.68,NNW,329,0.0,0.0,87,0.00,CLR,SCT,0.00,0.0,WeatherDisplay:10.37,2013-01-19 03:08:00,
2013-01-19 04:13:00,21.0,17.7,29.68,NNW,329,0.0,0.0,87,0.00,CLR,SCT,0.00,0.0,WeatherDisplay:10.37,2013-01-19 03:13:00,
2013-01-19 04:18:00,21.0,17.7,29.68,NNW,329,0.0,0.0,87,0.00,CLR,SCT,0.00,0.0,WeatherDisplay:10.37,2013-01-19 03:18:00,
2013-01-19 04:23:00,20.9,17.6,29.68,NNW,329,0.0,0.0,87,0.00,CLR,SCT,0.00,0.0,WeatherDisplay:10.37,2013-01-19 03:23:00,
2013-01-19 04:28:00,20.9,17.6,29.68,NNW,329,0.0,0.0,87,0.00,CLR,SCT,0.00,0.0,WeatherDisplay:10.37,2013-01-19 03:28:00,
2013-01-19 04:33:00,20.9,17.6,29.68,NNW,329,0.0,0.0,87,0.00,CLR,SCT,0.00,0.0,WeatherDisplay:10.37,2013-01-19 03:33:00,
2013-01-19 04:38:00,20.9,17.6,29.67,NNW,329,0.0,0.0,87,0.00,CLR,SCT,0.00,0.0,WeatherDisplay:10.37,2013-01-19 03:38:00,
2013-01-19 04:43:00,20.8,17.5,29.67,NNW,329,0.0,0.0,87,0.00,CLR,SCT,0.00,0.0,WeatherDisplay:10.37,2013-01-19 03:43:00,
2013-01-19 04:48:00,20.7,17.4,29.67,NNW,329,0.0,0.0,87,0.00,CLR,SCT,0.00,0.0,WeatherDisplay:10.37,2013-01-19 03:48:00,
2013-01-19 04:53:00,20.6,17.3,29.67,NNW,329,2.3,2.3,87,0.00,CLR,SCT,0.00,0.0,WeatherDisplay:10.37,2013-01-19 03:53:00,
2013-01-19 04:58:00,20.5,17.2,29.67,NNW,329,1.2,1.2,87,0.00,CLR,SCT,0.00,0.0,WeatherDisplay:10.37,2013-01-19 03:58:00,
2013-01-19 05:03:00,20.3,17.0,29.66,NNW,329,2.3,2.3,87,0.00,CLR,SCT,0.00,0.0,WeatherDisplay:10.37,2013-01-19 04:03:00,
2013-01-19 05:08:00,20.3,17.0,29.66,NNW,329,0.0,0.0,87,0.00,CLR,SCT,0.00,0.0,WeatherDisplay:10.37,2013-01-19 04:08:00,
2013-01-19 05:13:00,20.3,17.0,29.66,NNW,329,0.0,0.0,87,0.00,CLR,SCT,0.00,0.0,WeatherDisplay:10.37,2013-01-19 04:13:00,
2013-01-19 05:18:00,20.4,17.1,29.66,NNW,329,0.0,0.0,87,0.00,CLR,SCT,0.00,0.0,WeatherDisplay:10.37,2013-01-19 04:18:00,
2013-01-19 05:23:00,20.4,17.1,29.66,NNW,329,2.3,2.3,87,0.00,CLR,SCT,0.00,0.0,WeatherDisplay:10.37,2013-01-19 04:23:00,
2013-01-19 05:28:00,20.4,17.1,29.66,NNW,329,1.2,1.2,87,0.00,CLR,SCT,0.00,0.0,WeatherDisplay:10.37,2013-01-19 04:28:00,
2013-01-19 05:33:00,20.4,17.1,29.66,NNW,329,0.0,0.0,87,0.00,CLR,SCT,0.00,0.0,WeatherDisplay:10.37,2013-01-19 04:33:00,
2013-01-19 05:38:00,20.4,17.1,29.66,NNW,329,2.3,2.3,87,0.00,CLR,SCT,0.00,0.0,WeatherDisplay:10.37,2013-01-19 04:38:00,
2013-01-19 05:43:00,20.4,17.1,29.65,NNW,329,1.2,1.2,87,0.00,CLR,SCT,0.00,0.0,WeatherDisplay:10.37,2013-01-19 04:43:00,
2013-01-19 05:48:00,20.4,17.1,29.65,NNW,329,0.0,0.0,87,0.00,CLR,SCT,0.00,0.0,WeatherDisplay:10.37,2013-01-19 04:48:00,
2013-01-19 05:53:00,20.5,17.2,29.65,NNW,329,2.3,2.3,87,0.00,CLR,SCT,0.00,0.0,WeatherDisplay:10.37,2013-01-19 04:53:00,
2013-01-19 05:58:00,20.4,17.1,29.65,NNW,329,2.3,2.3,87,0.00,CLR,SCT,0.00,0.0,WeatherDisplay:10.37,2013-01-19 04:58:00,
2013-01-19 06:02:00,20.4,17.1,29.65,NNW,329,0.0,0.0,87,0.00,CLR,SCT,0.00,0.0,WeatherDisplay:10.37,2013-01-19 05:02:00,
2013-01-19 06:04:00,20.4,17.1,29.65,NNW,329,2.3,2.3,87,0.00,CLR,SCT,0.00,0.0,WeatherDisplay:10.37,2013-01-19 05:04:00,
2013-01-19 06:09:00,20.4,17.1,29.65,NNW,329,2.3,2.3,87,0.00,CLR,SCT,0.00,0.0,WeatherDisplay:10.37,2013-01-19 05:09:00,
2013-01-19 06:10:00,20.4,17.1,29.65,NNW,329,2.3,2.3,87,0.00,CLR,SCT,0.00,0.0,WeatherDisplay:10.37,2013-01-19 05:10:00,
2013-01-19 06:15:00,20.3,17.0,29.65,NNW,329,1.2,1.2,87,0.00,CLR,SCT,0.00,0.0,WeatherDisplay:10.37,2013-01-19 05:15:00,
2013-01-19 06:19:00,20.3,17.0,29.65,NNW,329,2.3,2.3,87,0.00,CLR,SCT,0.00,0.0,WeatherDisplay:10.37,2013-01-19 05:19:00,
2013-01-19 06:24:00,20.3,17.0,29.64,NNW,329,2.3,2.3,87,0.00,CLR,SCT,0.00,0.0,WeatherDisplay:10.37,2013-01-19 05:24:00,
2013-01-19 06:29:00,20.3,17.0,29.64,NNW,329,2.3,2.3,87,0.00,CLR,SCT,0.00,0.0,WeatherDisplay:10.37,2013-01-19 05:29:00,
2013-01-19 06:34:00,20.3,17.0,29.65,NNW,329,2.3,0.0,87,0.00,CLR,SCT,0.00,0.0,WeatherDisplay:10.37,2013-01-19 05:34:00,
2013-01-19 06:39:00,20.3,17.0,29.65,NNW,329,0.0,0.0,87,0.00,CLR,SCT,0.00,0.0,WeatherDisplay:10.37,2013-01-19 05:39:00,
2013-01-19 06:44:00,20.2,17.0,29.65,NNW,329,2.3,2.3,87,0.00,CLR,SCT,0.00,0.0,WeatherDisplay:10.37,2013-01-19 05:44:00,
2013-01-19 06:49:00,20.3,17.0,29.65,NNW,329,1.2,1.2,87,0.00,CLR,SCT,0.00,0.0,WeatherDisplay:10.37,2013-01-19 05:49:00,
2013-01-19 06:54:00,20.3,17.0,29.65,NNW,329,0.0,0.0,87,0.00,CLR,SCT,0.00,0.0,WeatherDisplay:10.37,2013-01-19 05:54:00,
2013-01-19 06:59:00,20.3,17.0,29.65,NNW,329,1.2,1.2,87,0.00,CLR,SCT,0.00,0.0,WeatherDisplay:10.37,2013-01-19 05:59:00,
2013-01-19 07:04:00,20.3,17.0,29.65,NNW,329,0.0,0.0,87,0.00,CLR,SCT,0.00,0.0,WeatherDisplay:10.37,2013-01-19 06:04:00,
2013-01-19 07:09:00,20.3,17.0,29.65,NNW,329,0.0,0.0,87,0.00,CLR,SCT,0.00,0.0,WeatherDisplay:10.37,2013-01-19 06:09:00,
2013-01-19 07:14:00,20.3,17.0,29.65,NNW,329,0.0,0.0,87,0.00,CLR,SCT,0.00,0.0,WeatherDisplay:10.37,2013-01-19 06:14:00,
2013-01-19 07:19:00,20.2,17.0,29.65,NNW,329,0.0,0.0,87,0.00,CLR,SCT,0.00,0.0,WeatherDisplay:10.37,2013-01-19 06:19:00,
2013-01-19 07:24:00,20.2,17.0,29.65,NNW,329,0.0,0.0,87,0.00,CLR,SCT,0.00,0.0,WeatherDisplay:10.37,2013-01-19 06:24:00,
2013-01-19 07:29:00,20.1,16.9,29.65,NNW,329,2.3,2.3,87,0.00,OVC,SCT,0.00,0.0,WeatherDisplay:10.37,2013-01-19 06:29:00,
2013-01-19 07:34:00,20.1,16.9,29.64,NNW,329,3.5,3.5,87,0.00,OVC,SCT,0.00,0.0,WeatherDisplay:10.37,2013-01-19 06:34:00,
2013-01-19 07:39:00,19.9,16.7,29.64,NNW,329,2.3,2.3,87,0.00,OVC,SCT,0.00,0.0,WeatherDisplay:10.37,2013-01-19 06:39:00,
2013-01-19 07:44:00,19.6,16.4,29.64,NNW,329,2.3,2.3,87,0.00,OVC,SCT,0.00,0.0,WeatherDisplay:10.37,2013-01-19 06:44:00,
2013-01-19 07:49:00,19.2,16.0,29.64,NNW,329,2.3,2.3,87,0.00,OVC,SCT,0.00,0.0,WeatherDisplay:10.37,2013-01-19 06:49:00,
2013-01-19 07:54:00,18.8,15.6,29.64,NNW,329,2.3,2.3,87,0.00,OVC,SCT,0.00,5.0,WeatherDisplay:10.37,2013-01-19 06:54:00,
2013-01-19 07:59:00,18.5,15.3,29.64,NNW,329,1.2,1.2,87,0.00,BKN,SCT,0.00,5.0,WeatherDisplay:10.37,2013-01-19 06:59:00,
2013-01-19 08:04:00,18.4,15.2,29.64,NNW,329,1.2,1.2,87,0.00,BKN,SCT,0.00,9.0,WeatherDisplay:10.37,2013-01-19 07:04:00,
2013-01-19 08:09:00,18.1,14.9,29.64,NNW,329,2.3,2.3,87,0.00,BKN,SCT,0.00,12.0,WeatherDisplay:10.37,2013-01-19 07:09:00,
2013-01-19 08:14:00,17.8,14.6,29.64,NNW,329,1.2,1.2,87,0.00,BKN,SCT,0.00,16.0,WeatherDisplay:10.37,2013-01-19 07:14:00,
2013-01-19 08:20:00,17.8,14.6,29.63,NNW,329,0.0,0.0,87,0.00,OVC,SCT,0.00,21.0,WeatherDisplay:10.37,2013-01-19 07:20:00,
2013-01-19 08:25:00,17.6,14.4,29.63,NNW,329,1.0,0.0,87,0.00,BKN,SCT,0.00,26.0,WeatherDisplay:10.37,2013-01-19 07:25:00,
2013-01-19 08:30:00,17.7,14.5,29.63,NNW,329,1.2,0.0,87,0.00,BKN,SCT,0.00,32.0,WeatherDisplay:10.37,2013-01-19 07:30:00,
2013-01-19 08:35:00,17.8,14.6,29.64,NNW,329,0.0,0.0,87,0.00,BKN,SCT,0.00,37.0,WeatherDisplay:10.37,2013-01-19 07:35:00,
2013-01-19 08:40:00,17.3,14.1,29.64,NNW,329,0.0,0.0,87,0.00,OVC,SCT,0.00,35.0,WeatherDisplay:10.37,2013-01-19 07:40:00,
2013-01-19 08:45:00,16.7,13.5,29.64,NNW,329,2.3,2.3,87,0.00,BKN,SCT,0.00,46.0,WeatherDisplay:10.37,2013-01-19 07:45:00,
2013-01-19 08:50:00,16.7,13.5,29.64,NNW,329,0.0,0.0,87,0.00,BKN,SCT,0.00,49.0,WeatherDisplay:10.37,2013-01-19 07:50:00,
2013-01-19 08:56:00,16.9,13.7,29.64,NNW,329,0.0,0.0,87,0.00,BKN,SCT,0.00,54.0,WeatherDisplay:10.37,2013-01-19 07:56:00,
2013-01-19 09:01:00,17.2,14.0,29.64,NNW,329,0.0,0.0,87,0.00,BKN,SCT,0.00,58.0,WeatherDisplay:10.37,2013-01-19 08:01:00,
2013-01-19 09:06:00,17.6,14.4,29.64,NNW,329,0.0,0.0,87,0.00,BKN,SCT,0.00,60.0,WeatherDisplay:10.37,2013-01-19 08:06:00,
2013-01-19 09:11:00,18.0,14.8,29.64,NNW,329,1.2,0.0,87,0.00,OVC,SCT,0.00,58.0,WeatherDisplay:10.37,2013-01-19 08:11:00,
2013-01-19 09:16:00,17.5,14.3,29.64,NNW,329,0.0,0.0,87,0.00,OVC,SCT,0.00,58.0,WeatherDisplay:10.37,2013-01-19 08:16:00,
2013-01-19 09:21:00,17.1,13.9,29.64,NNW,329,0.0,0.0,87,0.00,OVC,SCT,0.00,56.0,WeatherDisplay:10.37,2013-01-19 08:21:00,
2013-01-19 09:26:00,17.2,14.0,29.64,NNW,329,0.0,0.0,87,0.00,OVC,SCT,0.00,60.0,WeatherDisplay:10.37,2013-01-19 08:26:00,
2013-01-19 09:32:00,17.5,14.3,29.64,NNW,329,1.2,1.2,87,0.00,OVC,SCT,0.00,62.0,WeatherDisplay:10.37,2013-01-19 08:32:00,
2013-01-19 09:37:00,17.6,14.4,29.64,NNW,329,2.3,2.3,87,0.00,OVC,SCT,0.00,74.0,WeatherDisplay:10.37,2013-01-19 08:37:00,
2013-01-19 09:43:00,17.4,14.2,29.64,NNW,329,2.3,2.3,87,0.00,OVC,SCT,0.00,74.0,WeatherDisplay:10.37,2013-01-19 08:43:00,
2013-01-19 09:48:00,17.4,14.2,29.64,NNW,329,1.2,1.2,87,0.00,OVC,SCT,0.00,77.0,WeatherDisplay:10.37,2013-01-19 08:48:00,
2013-01-19 09:53:00,17.4,14.2,29.64,NNW,329,1.2,1.2,87,0.00,BKN,SCT,0.00,100.0,WeatherDisplay:10.37,2013-01-19 08:53:00,
2013-01-19 09:58:00,17.6,14.4,29.63,NNW,329,2.3,2.3,87,0.00,SCT,,0.00,155.0,WeatherDisplay:10.37,2013-01-19 08:58:00,
2013-01-19 10:03:00,17.9,14.7,29.63,NNW,329,0.0,0.0,87,0.00,SCT,,0.00,146.0,WeatherDisplay:10.37,2013-01-19 09:03:00,
2013-01-19 10:08:00,18.0,14.8,29.63,NNW,329,0.0,0.0,87,0.00,SCT,,0.00,137.0,WeatherDisplay:10.37,2013-01-19 09:08:00,
2013-01-19 10:13:00,18.1,14.6,29.63,NNW,329,0.0,0.0,86,0.00,BKN,SCT,0.00,135.0,WeatherDisplay:10.37,2013-01-19 09:13:00,
2013-01-19 10:18:00,18.2,14.7,29.64,NNW,329,0.0,0.0,86,0.00,SCT,,0.00,172.0,WeatherDisplay:10.37,2013-01-19 09:18:00,
2013-01-19 10:23:00,18.5,15.0,29.64,NNW,329,0.0,0.0,86,0.00,SCT,,0.00,225.0,WeatherDisplay:10.37,2013-01-19 09:23:00,
2013-01-19 10:28:00,19.2,15.7,29.63,NNW,329,0.0,0.0,86,0.00,CLR,SCT,0.00,269.0,WeatherDisplay:10.37,2013-01-19 09:28:00,
2013-01-19 10:33:00,20.7,17.2,29.63,NNW,329,2.0,2.0,86,0.00,CLR,SCT,0.00,274.0,WeatherDisplay:10.37,2013-01-19 09:33:00,
2013-01-19 10:38:00,21.2,17.4,29.63,North,360,3.5,3.5,85,0.00,FEW,SCT,0.00,250.0,WeatherDisplay:10.37,2013-01-19 09:38:00,
2013-01-19 10:43:00,21.2,17.1,29.63,North,360,2.3,2.3,84,0.00,CLR,SCT,0.00,295.0,WeatherDisplay:10.37,2013-01-19 09:43:00,
2013-01-19 10:48:00,21.3,17.2,29.63,North,360,2.3,2.3,84,0.00,CLR,SCT,0.00,288.0,WeatherDisplay:10.37,2013-01-19 09:48:00,
2013-01-19 10:53:00,21.5,17.4,29.63,North,360,3.5,3.5,84,0.00,CLR,SCT,0.00,281.0,WeatherDisplay:10.37,2013-01-19 09:53:00,
2013-01-19 10:58:00,21.2,16.8,29.62,NNE,16,3.5,3.5,83,0.00,CLR,SCT,0.00,292.0,WeatherDisplay:10.37,2013-01-19 09:58:00,
2013-01-19 11:03:00,21.2,17.1,29.62,NNE,16,2.3,2.3,84,0.00,CLR,SCT,0.00,302.0,WeatherDisplay:10.37,2013-01-19 10:03:00,
2013-01-19 11:08:00,21.2,17.1,29.62,NNE,16,2.3,2.3,84,0.00,CLR,SCT,0.00,294.0,WeatherDisplay:10.37,2013-01-19 10:08:00,
2013-01-19 11:13:00,21.3,16.9,29.62,NNE,16,1.2,1.2,83,0.00,FEW,SCT,0.00,260.0,WeatherDisplay:10.37,2013-01-19 10:13:00,
2013-01-19 11:18:00,21.8,17.7,29.62,NNE,16,1.2,0.0,84,0.00,SCT,,0.00,223.0,WeatherDisplay:10.37,2013-01-19 10:18:00,
2013-01-19 11:23:00,22.1,17.7,29.62,NNE,16,0.0,0.0,83,0.00,SCT,,0.00,225.0,WeatherDisplay:10.37,2013-01-19 10:23:00,
2013-01-19 11:28:00,22.2,17.8,29.62,NNE,16,1.2,1.2,83,0.00,FEW,SCT,0.00,227.0,WeatherDisplay:10.37,2013-01-19 10:28:00,
2013-01-19 11:33:00,21.9,17.2,29.62,NNE,16,2.3,2.3,82,0.00,SCT,,0.00,236.0,WeatherDisplay:10.37,2013-01-19 10:33:00,
2013-01-19 11:38:00,21.4,17.0,29.62,NNE,16,3.5,3.5,83,0.00,FEW,SCT,0.00,299.0,WeatherDisplay:10.37,2013-01-19 10:38:00,
2013-01-19 11:43:00,21.3,16.9,29.62,NNE,16,2.3,2.3,83,0.00,FEW,SCT,0.00,204.0,WeatherDisplay:10.37,2013-01-19 10:43:00,
2013-01-19 11:48:00,21.1,17.0,29.62,NNE,16,3.0,3.0,84,0.00,BKN,SCT,0.00,162.0,WeatherDisplay:10.37,2013-01-19 10:48:00,
2013-01-19 11:53:00,20.8,16.7,29.61,North,11,2.3,2.3,84,0.00,BKN,SCT,0.00,146.0,WeatherDisplay:10.37,2013-01-19 10:53:00,
2013-01-19 11:58:00,20.5,16.4,29.62,WSW,246,3.5,3.5,84,0.00,BKN,SCT,0.00,153.0,WeatherDisplay:10.37,2013-01-19 10:58:00,
2013-01-19 12:03:00,20.6,16.5,29.61,WSW,246,1.2,0.0,84,0.00,BKN,SCT,0.00,167.0,WeatherDisplay:10.37,2013-01-19 11:03:00,
2013-01-19 12:08:00,21.1,17.3,29.61,WSW,246,3.0,3.0,85,0.00,BKN,SCT,0.00,167.0,WeatherDisplay:10.37,2013-01-19 11:08:00,
2013-01-19 12:13:00,21.6,19.6,29.61,WSW,246,3.5,3.5,92,0.00,BKN,SCT,0.00,160.0,WeatherDisplay:10.37,2013-01-19 11:13:00,
2013-01-19 13:48:00,23.5,18.5,29.59,SW,233,5.0,5.0,81,0.00,FEW,SCT,0.00,230.0,WeatherDisplay:10.37,2013-01-19 12:48:00,
2013-01-19 13:50:00,23.6,18.6,29.59,SW,233,3.5,3.5,81,0.00,FEW,SCT,0.00,258.0,WeatherDisplay:10.37,2013-01-19 12:50:00,
2013-01-19 13:51:00,23.7,18.7,29.59,SW,233,3.5,3.5,81,0.00,FEW,SCT,0.00,253.0,WeatherDisplay:10.37,2013-01-19 12:51:00,
2013-01-19 13:53:00,23.8,18.8,29.59,SW,233,3.5,3.5,81,0.00,CLR,SCT,0.00,329.0,WeatherDisplay:10.37,2013-01-19 12:53:00,
2013-01-19 13:58:00,24.0,18.7,29.59,SW,233,2.3,2.3,80,0.00,CLR,SCT,0.00,306.0,WeatherDisplay:10.37,2013-01-19 12:58:00,
2013-01-19 14:03:00,24.2,18.9,29.59,SW,233,3.5,3.5,80,0.00,FEW,SCT,0.00,207.0,WeatherDisplay:10.37,2013-01-19 13:03:00,
2013-01-19 14:08:00,24.2,18.9,29.59,SW,233,3.5,3.5,80,0.00,SCT,,0.00,162.0,WeatherDisplay:10.37,2013-01-19 13:08:00,
2013-01-19 14:13:00,24.0,18.7,29.59,SW,232,4.0,4.0,80,0.00,SCT,,0.00,169.0,WeatherDisplay:10.37,2013-01-19 13:13:00,
2013-01-19 14:18:00,24.0,18.7,29.59,SW,233,3.5,3.5,80,0.00,FEW,SCT,0.00,223.0,WeatherDisplay:10.37,2013-01-19 13:18:00,
2013-01-19 14:23:00,24.1,18.8,29.59,SW,233,3.5,3.5,80,0.00,SCT,,0.00,165.0,WeatherDisplay:10.37,2013-01-19 13:23:00,
2013-01-19 14:28:00,23.9,18.6,29.59,SW,233,3.0,3.0,80,0.00,SCT,,0.00,144.0,WeatherDisplay:10.37,2013-01-19 13:28:00,
2013-01-19 14:33:00,23.8,18.5,29.59,SW,233,3.5,3.5,80,0.00,SCT,,0.00,141.0,WeatherDisplay:10.37,2013-01-19 13:33:00,
2013-01-19 14:38:00,23.5,17.9,29.60,SW,233,3.5,3.5,79,0.00,SCT,,0.00,127.0,WeatherDisplay:10.37,2013-01-19 13:38:00,
2013-01-19 14:43:00,23.3,18.0,29.59,SW,233,2.3,2.3,80,0.00,SCT,,0.00,111.0,WeatherDisplay:10.37,2013-01-19 13:43:00,
2013-01-19 14:48:00,23.2,17.9,29.60,SW,233,3.5,3.5,80,0.00,BKN,SCT,0.00,72.0,WeatherDisplay:10.37,2013-01-19 13:48:00,
2013-01-19 14:53:00,23.0,17.7,29.60,SW,233,2.3,2.3,80,0.00,OVC,SCT,0.00,58.0,WeatherDisplay:10.37,2013-01-19 13:53:00,
2013-01-19 14:58:00,22.7,17.7,29.59,SW,233,1.2,1.2,81,0.00,OVC,SCT,0.00,49.0,WeatherDisplay:10.37,2013-01-19 13:58:00,
2013-01-19 15:03:00,22.4,17.5,29.59,SW,233,1.2,1.2,81,0.00,OVC,SCT,0.00,44.0,WeatherDisplay:10.37,2013-01-19 14:03:00,
2013-01-19 15:08:00,22.3,17.6,29.59,SW,233,2.3,2.3,82,0.00,OVC,SCT,0.00,49.0,WeatherDisplay:10.37,2013-01-19 14:08:00,
2013-01-19 15:13:00,22.1,17.4,29.59,SW,233,2.3,2.3,82,0.00,OVC,SCT,0.00,49.0,WeatherDisplay:10.37,2013-01-19 14:13:00,
2013-01-19 15:18:00,22.0,17.3,29.59,SW,233,2.3,2.3,82,0.00,OVC,SCT,0.00,54.0,WeatherDisplay:10.37,2013-01-19 14:18:00,
2013-01-19 15:23:00,21.8,17.2,29.59,SW,233,1.2,0.0,82,0.00,OVC,SCT,0.00,37.0,WeatherDisplay:10.37,2013-01-19 14:23:00,
2013-01-19 15:28:00,21.6,17.0,29.59,SW,233,0.0,0.0,82,0.00,OVC,SCT,0.00,25.0,WeatherDisplay:10.37,2013-01-19 14:28:00,
2013-01-19 15:33:00,21.2,16.6,29.60,SW,233,1.2,0.0,82,0.00,OVC,SCT,0.00,21.0,WeatherDisplay:10.37,2013-01-19 14:33:00,
2013-01-19 15:38:00,20.8,16.2,29.60,SW,234,1.2,0.0,82,0.00,OVC,SCT,0.00,19.0,WeatherDisplay:10.37,2013-01-19 14:38:00,
2013-01-19 15:43:00,20.6,16.3,29.60,SW,233,0.0,0.0,83,0.00,OVC,SCT,0.00,19.0,WeatherDisplay:10.37,2013-01-19 14:43:00,
2013-01-19 15:48:00,20.4,16.1,29.60,SW,234,0.0,0.0,83,0.00,OVC,SCT,0.00,18.0,WeatherDisplay:10.37,2013-01-19 14:48:00,
2013-01-19 15:54:00,20.3,16.2,29.59,SW,233,0.0,0.0,84,0.00,OVC,SCT,0.00,16.0,WeatherDisplay:10.37,2013-01-19 14:54:00,
2013-01-19 15:59:00,19.9,15.6,29.59,SW,234,1.2,1.2,83,0.00,OVC,SCT,0.00,12.0,WeatherDisplay:10.37,2013-01-19 14:59:00,
2013-01-19 16:04:00,19.5,15.5,29.60,SW,233,0.0,0.0,84,0.00,OVC,SCT,0.00,9.0,WeatherDisplay:10.37,2013-01-19 15:04:00,
2013-01-19 16:09:00,19.3,15.3,29.60,SW,233,1.2,1.2,84,0.00,OVC,SCT,0.00,9.0,WeatherDisplay:10.37,2013-01-19 15:09:00,
2013-01-19 16:14:00,19.1,15.1,29.60,SW,233,1.2,1.2,84,0.00,OVC,SCT,0.00,7.0,WeatherDisplay:10.37,2013-01-19 15:14:00,
2013-01-19 16:19:00,19.0,15.0,29.60,SW,234,1.2,1.2,84,0.00,OVC,SCT,0.00,7.0,WeatherDisplay:10.37,2013-01-19 15:19:00,
2013-01-19 16:24:00,18.8,14.8,29.60,SW,233,1.2,1.2,84,0.00,OVC,SCT,0.00,5.0,WeatherDisplay:10.37,2013-01-19 15:24:00,
2013-01-19 16:29:00,18.7,14.9,29.60,SW,233,0.0,0.0,85,0.00,CLR,SCT,0.00,5.0,WeatherDisplay:10.37,2013-01-19 15:29:00,
2013-01-19 16:34:00,18.8,15.0,29.60,SW,233,1.0,1.0,85,0.00,OVC,SCT,0.00,0.0,WeatherDisplay:10.37,2013-01-19 15:34:00,
2013-01-19 16:39:00,18.9,15.1,29.60,SW,233,2.3,2.3,85,0.00,OVC,SCT,0.00,0.0,WeatherDisplay:10.37,2013-01-19 15:39:00,
2013-01-19 16:44:00,18.9,15.1,29.60,SW,233,1.2,1.2,85,0.00,OVC,SCT,0.00,0.0,WeatherDisplay:10.37,2013-01-19 15:44:00,
2013-01-19 16:49:00,18.8,15.0,29.59,SW,233,0.0,0.0,85,0.00,OVC,SCT,0.00,0.0,WeatherDisplay:10.37,2013-01-19 15:49:00,
2013-01-19 16:54:00,18.8,15.0,29.59,SW,233,0.0,0.0,85,0.00,OVC,SCT,0.00,0.0,WeatherDisplay:10.37,2013-01-19 15:54:00,
2013-01-19 16:59:00,19.0,15.2,29.59,SW,234,0.0,0.0,85,0.00,OVC,SCT,0.00,0.0,WeatherDisplay:10.37,2013-01-19 15:59:00,
2013-01-19 17:04:00,19.0,15.2,29.59,SW,233,2.3,2.3,85,0.00,CLR,SCT,0.00,0.0,WeatherDisplay:10.37,2013-01-19 16:04:00,
2013-01-19 17:09:00,19.0,15.2,29.60,SW,233,0.0,0.0,85,0.00,CLR,SCT,0.00,0.0,WeatherDisplay:10.37,2013-01-19 16:09:00,
2013-01-19 17:14:00,19.2,15.7,29.60,SW,233,1.0,1.0,86,0.00,CLR,SCT,0.00,0.0,WeatherDisplay:10.37,2013-01-19 16:14:00,
2013-01-19 17:19:00,19.3,15.8,29.60,SW,233,1.2,0.0,86,0.00,CLR,SCT,0.00,0.0,WeatherDisplay:10.37,2013-01-19 16:19:00,
2013-01-19 17:24:00,19.3,15.5,29.60,SW,233,0.0,0.0,85,0.00,CLR,SCT,0.00,0.0,WeatherDisplay:10.37,2013-01-19 16:24:00,
2013-01-19 17:30:00,19.4,15.6,29.60,SW,234,1.2,0.0,85,0.00,CLR,SCT,0.00,0.0,WeatherDisplay:10.37,2013-01-19 16:30:00,
2013-01-19 17:35:00,19.6,16.1,29.60,SW,234,0.0,0.0,86,0.00,CLR,SCT,0.00,0.0,WeatherDisplay:10.37,2013-01-19 16:35:00,
2013-01-19 17:40:00,19.7,16.2,29.60,SW,233,0.0,0.0,86,0.00,CLR,SCT,0.00,0.0,WeatherDisplay:10.37,2013-01-19 16:40:00,
2013-01-19 17:45:00,19.9,16.4,29.60,SW,233,0.0,0.0,86,0.00,CLR,SCT,0.00,0.0,WeatherDisplay:10.37,2013-01-19 16:45:00,
2013-01-19 17:50:00,19.9,16.4,29.60,SW,233,0.0,0.0,86,0.00,CLR,SCT,0.00,0.0,WeatherDisplay:10.37,2013-01-19 16:50:00,
2013-01-19 17:55:00,20.1,16.3,29.60,SW,234,0.0,0.0,85,0.00,CLR,SCT,0.00,0.0,WeatherDisplay:10.37,2013-01-19 16:55:00,
2013-01-19 18:00:00,20.2,16.7,29.60,SW,234,0.0,0.0,86,0.00,CLR,SCT,0.00,0.0,WeatherDisplay:10.37,2013-01-19 17:00:00,
2013-01-19 18:05:00,20.3,16.8,29.60,SW,234,0.0,0.0,86,0.00,CLR,SCT,0.00,0.0,WeatherDisplay:10.37,2013-01-19 17:05:00,
2013-01-19 18:10:00,20.2,16.7,29.60,SW,233,0.0,0.0,86,0.00,CLR,SCT,0.00,0.0,WeatherDisplay:10.37,2013-01-19 17:10:00,
2013-01-19 18:15:00,20.2,16.7,29.60,SW,233,0.0,0.0,86,0.00,CLR,SCT,0.00,0.0,WeatherDisplay:10.37,2013-01-19 17:15:00,
2013-01-19 18:20:00,20.1,16.6,29.60,SW,233,0.0,0.0,86,0.00,CLR,SCT,0.00,0.0,WeatherDisplay:10.37,2013-01-19 17:20:00,
2013-01-19 18:27:00,19.9,16.4,29.60,SW,233,0.0,0.0,86,0.00,CLR,SCT,0.00,0.0,WeatherDisplay:10.37,2013-01-19 17:27:00,
2013-01-19 18:32:00,19.7,16.2,29.60,SW,233,0.0,0.0,86,0.00,CLR,SCT,0.00,0.0,WeatherDisplay:10.37,2013-01-19 17:32:00,
2013-01-19 18:38:00,19.5,16.0,29.61,SW,233,0.0,0.0,86,0.00,CLR,SCT,0.00,0.0,WeatherDisplay:10.37,2013-01-19 17:38:00,
2013-01-19 18:43:00,19.3,15.8,29.61,SW,233,1.0,1.0,86,0.00,CLR,SCT,0.00,0.0,WeatherDisplay:10.37,2013-01-19 17:43:00,
2013-01-19 18:48:00,19.1,15.6,29.61,SW,233,0.0,0.0,86,0.00,CLR,SCT,0.00,0.0,WeatherDisplay:10.37,2013-01-19 17:48:00,
2013-01-19 18:53:00,19.1,15.6,29.61,SW,233,0.0,0.0,86,0.00,CLR,SCT,0.00,0.0,WeatherDisplay:10.37,2013-01-19 17:53:00,
2013-01-19 18:59:00,19.1,15.6,29.61,SW,233,0.0,0.0,86,0.00,CLR,SCT,0.00,0.0,WeatherDisplay:10.37,2013-01-19 17:59:00,
2013-01-19 19:04:00,19.2,15.7,29.61,SW,233,0.0,0.0,86,0.00,CLR,SCT,0.00,0.0,WeatherDisplay:10.37,2013-01-19 18:04:00,
2013-01-19 19:09:00,19.2,15.7,29.61,SW,234,1.2,0.0,86,0.00,CLR,SCT,0.00,0.0,WeatherDisplay:10.37,2013-01-19 18:09:00,
2013-01-19 19:14:00,19.4,15.9,29.61,SW,233,0.0,0.0,86,0.00,CLR,SCT,0.00,0.0,WeatherDisplay:10.37,2013-01-19 18:14:00,
2013-01-19 19:20:00,19.5,16.0,29.61,SW,233,0.0,0.0,86,0.00,CLR,SCT,0.00,0.0,WeatherDisplay:10.37,2013-01-19 18:20:00,
2013-01-19 19:26:00,19.6,16.1,29.61,SW,233,0.0,0.0,86,0.00,CLR,SCT,0.00,0.0,WeatherDisplay:10.37,2013-01-19 18:26:00,
2013-01-19 19:31:00,19.7,16.2,29.61,SW,234,0.0,0.0,86,0.00,CLR,SCT,0.00,0.0,WeatherDisplay:10.37,2013-01-19 18:31:00,
2013-01-19 19:36:00,19.5,16.0,29.61,SW,233,0.0,0.0,86,0.00,CLR,SCT,0.00,0.0,WeatherDisplay:10.37,2013-01-19 18:36:00,
2013-01-19 19:42:00,19.7,16.2,29.61,SW,233,0.0,0.0,86,0.00,CLR,SCT,0.00,0.0,WeatherDisplay:10.37,2013-01-19 18:42:00,
2013-01-19 19:47:00,19.8,16.3,29.61,SW,234,2.3,2.3,86,0.00,CLR,SCT,0.00,0.0,WeatherDisplay:10.37,2013-01-19 18:47:00,
2013-01-19 19:53:00,19.9,16.4,29.60,SW,234,3.5,3.5,86,0.00,CLR,SCT,0.00,0.0,WeatherDisplay:10.37,2013-01-19 18:53:00,
2013-01-19 19:58:00,20.1,16.6,29.60,SW,234,3.5,3.5,86,0.00,CLR,SCT,0.00,0.0,WeatherDisplay:10.37,2013-01-19 18:58:00,
2013-01-19 20:03:00,20.1,16.6,29.60,SW,233,3.5,3.5,86,0.00,CLR,SCT,0.00,0.0,WeatherDisplay:10.37,2013-01-19 19:03:00,
2013-01-19 20:09:00,20.2,16.7,29.60,SW,233,3.0,3.0,86,0.00,CLR,SCT,0.00,0.0,WeatherDisplay:10.37,2013-01-19 19:09:00,
2013-01-19 20:15:00,20.3,16.8,29.60,SW,233,4.0,4.0,86,0.00,CLR,SCT,0.00,0.0,WeatherDisplay:10.37,2013-01-19 19:15:00,
2013-01-19 20:20:00,20.4,16.6,29.60,SW,233,4.0,4.0,85,0.00,CLR,SCT,0.00,0.0,WeatherDisplay:10.37,2013-01-19 19:20:00,
2013-01-19 20:27:00,20.5,16.7,29.60,SW,233,3.5,3.5,85,0.00,CLR,SCT,0.00,0.0,WeatherDisplay:10.37,2013-01-19 19:27:00,
2013-01-19 20:33:00,20.4,16.6,29.60,SW,233,3.5,3.5,85,0.00,CLR,SCT,0.00,0.0,WeatherDisplay:10.37,2013-01-19 19:33:00,
2013-01-19 20:39:00,20.3,16.5,29.61,SW,233,3.5,3.5,85,0.00,CLR,SCT,0.00,0.0,WeatherDisplay:10.37,2013-01-19 19:39:00,
2013-01-19 20:44:00,20.3,16.5,29.60,SW,232,3.5,3.5,85,0.00,CLR,SCT,0.00,0.0,WeatherDisplay:10.37,2013-01-19 19:44:00,
2013-01-19 20:49:00,20.2,16.4,29.60,SW,233,3.0,3.0,85,0.00,CLR,SCT,0.00,0.0,WeatherDisplay:10.37,2013-01-19 19:49:00,
2013-01-19 20:57:00,20.2,16.4,29.60,SW,234,4.0,4.0,85,0.00,CLR,SCT,0.00,0.0,WeatherDisplay:10.37,2013-01-19 19:57:00,
2013-01-19 21:06:00,20.2,16.4,29.60,SW,233,3.5,3.5,85,0.00,CLR,SCT,0.00,0.0,WeatherDisplay:10.37,2013-01-19 20:06:00,
2013-01-19 21:12:00,20.3,16.8,29.60,SW,233,3.5,3.5,86,0.00,CLR,SCT,0.00,0.0,WeatherDisplay:10.37,2013-01-19 20:12:00,
2013-01-19 21:19:00,20.4,16.6,29.60,SW,233,4.0,4.0,85,0.00,CLR,SCT,0.00,0.0,WeatherDisplay:10.37,2013-01-19 20:19:00,
2013-01-19 21:25:00,20.4,16.6,29.60,SW,234,4.0,4.0,85,0.00,CLR,SCT,0.00,0.0,WeatherDisplay:10.37,2013-01-19 20:25:00,
2013-01-19 21:30:00,20.4,16.6,29.60,SW,233,3.5,3.5,85,0.00,CLR,SCT,0.00,0.0,WeatherDisplay:10.37,2013-01-19 20:30:00,
2013-01-19 21:35:00,20.3,16.5,29.60,SW,233,3.5,3.5,85,0.00,CLR,SCT,0.00,0.0,WeatherDisplay:10.37,2013-01-19 20:35:00,
2013-01-19 21:40:00,20.3,16.5,29.60,SW,233,3.5,3.5,85,0.00,CLR,SCT,0.00,0.0,WeatherDisplay:10.37,2013-01-19 20:40:00,
2013-01-19 21:46:00,20.4,16.6,29.61,SW,233,2.3,2.3,85,0.00,CLR,SCT,0.00,0.0,WeatherDisplay:10.37,2013-01-19 20:46:00,
2013-01-19 21:51:00,20.5,16.7,29.61,SW,233,1.2,1.2,85,0.00,CLR,SCT,0.00,0.0,WeatherDisplay:10.37,2013-01-19 20:51:00,
2013-01-19 21:56:00,20.5,16.7,29.61,SW,233,2.3,2.3,85,0.00,CLR,SCT,0.00,0.0,WeatherDisplay:10.37,2013-01-19 20:56:00,
2013-01-19 22:01:00,20.5,16.7,29.61,SW,234,3.5,3.5,85,0.00,CLR,SCT,0.00,0.0,WeatherDisplay:10.37,2013-01-19 21:01:00,
2013-01-19 22:06:00,20.4,16.6,29.61,SW,233,2.3,2.3,85,0.00,CLR,SCT,0.00,0.0,WeatherDisplay:10.37,2013-01-19 21:06:00,
2013-01-19 22:11:00,20.5,16.7,29.61,SW,233,3.5,3.5,85,0.00,CLR,SCT,0.00,0.0,WeatherDisplay:10.37,2013-01-19 21:11:00,
2013-01-19 22:16:00,20.5,16.7,29.61,SW,233,2.3,2.3,85,0.00,CLR,SCT,0.00,0.0,WeatherDisplay:10.37,2013-01-19 21:16:00,
2013-01-19 22:22:00,20.5,16.7,29.61,SW,233,2.3,2.3,85,0.00,CLR,SCT,0.00,0.0,WeatherDisplay:10.37,2013-01-19 21:22:00,
2013-01-19 22:27:00,20.6,16.8,29.61,SW,233,2.3,2.3,85,0.00,CLR,SCT,0.00,0.0,WeatherDisplay:10.37,2013-01-19 21:27:00,
2013-01-19 22:36:00,20.6,16.8,29.61,SW,233,3.5,3.5,85,0.00,CLR,SCT,0.00,0.0,WeatherDisplay:10.37,2013-01-19 21:36:00,
2013-01-19 22:42:00,20.7,16.9,29.61,SW,233,1.2,1.2,85,0.00,CLR,SCT,0.00,0.0,WeatherDisplay:10.37,2013-01-19 21:42:00,
2013-01-19 22:48:00,20.7,16.9,29.61,SW,233,1.2,0.0,85,0.00,CLR,SCT,0.00,0.0,WeatherDisplay:10.37,2013-01-19 21:48:00,
2013-01-19 22:53:00,20.8,17.0,29.61,SW,233,0.0,0.0,85,0.00,CLR,SCT,0.00,0.0,WeatherDisplay:10.37,2013-01-19 21:53:00,
2013-01-19 22:58:00,20.8,17.0,29.61,SW,233,2.3,2.3,85,0.00,CLR,SCT,0.00,0.0,WeatherDisplay:10.37,2013-01-19 21:58:00,
2013-01-19 23:04:00,20.8,17.0,29.61,SW,234,3.5,3.5,85,0.00,CLR,SCT,0.00,0.0,WeatherDisplay:10.37,2013-01-19 22:04:00,
2013-01-19 23:11:00,20.8,17.0,29.61,SW,233,3.5,3.5,85,0.00,CLR,SCT,0.00,0.0,WeatherDisplay:10.37,2013-01-19 22:11:00,
2013-01-19 23:16:00,20.8,17.0,29.61,SW,234,3.5,3.5,85,0.00,CLR,SCT,0.00,0.0,WeatherDisplay:10.37,2013-01-19 22:16:00,
2013-01-19 23:22:00,20.9,17.1,29.61,SW,233,2.3,2.3,85,0.00,CLR,SCT,0.00,0.0,WeatherDisplay:10.37,2013-01-19 22:22:00,
2013-01-19 23:27:00,21.0,17.2,29.61,SW,233,2.3,2.3,85,0.00,CLR,SCT,0.00,0.0,WeatherDisplay:10.37,2013-01-19 22:27:00,
2013-01-19 23:32:00,20.9,17.1,29.61,SW,234,2.3,2.3,85,0.00,CLR,SCT,0.00,0.0,WeatherDisplay:10.37,2013-01-19 22:32:00,
2013-01-19 23:37:00,20.9,17.1,29.61,SW,234,2.3,2.3,85,0.00,CLR,SCT,0.00,0.0,WeatherDisplay:10.37,2013-01-19 22:37:00,
2013-01-19 23:44:00,20.9,17.4,29.61,SW,233,2.3,2.3,86,0.00,CLR,SCT,0.00,0.0,WeatherDisplay:10.37,2013-01-19 22:44:00,
2013-01-19 23:50:00,21.0,17.5,29.61,SW,233,2.3,2.3,86,0.00,CLR,SCT,0.00,0.0,WeatherDisplay:10.37,2013-01-19 22:50:00,
2013-01-19 23:55:00,21.0,17.5,29.61,SW,233,2.3,2.3,86,0.00,CLR,SCT,0.00,0.0,WeatherDisplay:10.37,2013-01-19 22:55:00,